sensor_id;sensor_type;location;lat;lon;timestamp;temperature;humidity
55365;DHT22;41245;45.384;20.390;2022-10-31T00:02:23;333.60;2329.60
55365;DHT22;41245;45.384;20.390;2022-10-31T00:04:49;333.50;2329.60
55365;DHT22;41245;45.384;20.390;2022-10-31T00:07:14;333.60;2329.60
55365;DHT22;41245;45.384;20.390;2022-10-31T00:09:40;333.70;2329.60
55365;DHT22;41245;45.384;20.390;2022-10-31T00:12:06;358.40;2329.60
55365;DHT22;41245;45.384;20.390;2022-10-31T00:14:31;333.50;2329.60
55365;DHT22;41245;45.384;20.390;2022-10-31T00:16:57;333.60;2329.60
55365;DHT22;41245;45.384;20.390;2022-10-31T00:19:23;333.60;2329.60
55365;DHT22;41245;45.384;20.390;2022-10-31T00:21:51;333.30;2329.60
55365;DHT22;41245;45.384;20.390;2022-10-31T00:24:17;333.60;2329.60
55365;DHT22;41245;45.384;20.390;2022-10-31T00:26:42;333.50;2329.60
55365;DHT22;41245;45.384;20.390;2022-10-31T00:29:08;333.40;2329.60
55365;DHT22;41245;45.384;20.390;2022-10-31T00:31:34;333.60;2329.60
55365;DHT22;41245;45.384;20.390;2022-10-31T00:34:00;358.70;2329.60
55365;DHT22;41245;45.384;20.390;2022-10-31T00:36:28;333.70;2329.60
55365;DHT22;41245;45.384;20.390;2022-10-31T00:38:53;333.70;2329.60
55365;DHT22;41245;45.384;20.390;2022-10-31T00:41:19;333.60;2329.60
55365;DHT22;41245;45.384;20.390;2022-10-31T00:43:45;333.40;2329.60
55365;DHT22;41245;45.384;20.390;2022-10-31T00:46:12;333.30;2329.60
55365;DHT22;41245;45.384;20.390;2022-10-31T00:48:38;333.10;2329.60
55365;DHT22;41245;45.384;20.390;2022-10-31T00:51:04;333.20;2329.60
55365;DHT22;41245;45.384;20.390;2022-10-31T00:53:30;333.10;2329.60
55365;DHT22;41245;45.384;20.390;2022-10-31T00:55:55;333.10;2329.60
55365;DHT22;41245;45.384;20.390;2022-10-31T00:58:21;333.00;2329.60
55365;DHT22;41245;45.384;20.390;2022-10-31T01:00:50;332.80;2329.60
55365;DHT22;41245;45.384;20.390;2022-10-31T01:03:21;308.10;2304.00
55365;DHT22;41245;45.384;20.390;2022-10-31T01:05:56;332.80;2329.60
55365;DHT22;41245;45.384;20.390;2022-10-31T01:08:22;308.10;2304.00
55365;DHT22;41245;45.384;20.390;2022-10-31T01:10:58;307.90;2304.00
55365;DHT22;41245;45.384;20.390;2022-10-31T01:13:24;307.90;2304.00
55365;DHT22;41245;45.384;20.390;2022-10-31T01:15:54;307.80;2304.00
55365;DHT22;41245;45.384;20.390;2022-10-31T01:18:21;307.80;2304.00
55365;DHT22;41245;45.384;20.390;2022-10-31T01:20:47;307.80;2304.00
55365;DHT22;41245;45.384;20.390;2022-10-31T01:23:12;332.80;2329.60
55365;DHT22;41245;45.384;20.390;2022-10-31T01:25:38;307.90;2304.00
55365;DHT22;41245;45.384;20.390;2022-10-31T01:28:04;308.00;2304.00
55365;DHT22;41245;45.384;20.390;2022-10-31T01:30:29;332.90;2329.60
55365;DHT22;41245;45.384;20.390;2022-10-31T01:32:55;333.20;2329.60
55365;DHT22;41245;45.384;20.390;2022-10-31T01:35:22;333.20;2329.60
55365;DHT22;41245;45.384;20.390;2022-10-31T01:37:47;333.30;2329.60
55365;DHT22;41245;45.384;20.390;2022-10-31T01:40:13;333.30;2329.60
55365;DHT22;41245;45.384;20.390;2022-10-31T01:42:39;333.40;2329.60
55365;DHT22;41245;45.384;20.390;2022-10-31T01:45:09;333.40;2329.60
55365;DHT22;41245;45.384;20.390;2022-10-31T01:47:42;333.40;2329.60
55365;DHT22;41245;45.384;20.390;2022-10-31T01:50:30;333.30;2329.60
55365;DHT22;41245;45.384;20.390;2022-10-31T01:52:57;333.40;2329.60
55365;DHT22;41245;45.384;20.390;2022-10-31T01:55:32;333.40;2329.60
55365;DHT22;41245;45.384;20.390;2022-10-31T01:58:06;333.30;2329.60
55365;DHT22;41245;45.384;20.390;2022-10-31T02:00:32;333.40;2329.60
55365;DHT22;41245;45.384;20.390;2022-10-31T02:02:58;333.40;2329.60
55365;DHT22;41245;45.384;20.390;2022-10-31T02:05:27;333.60;2329.60
55365;DHT22;41245;45.384;20.390;2022-10-31T02:08:16;333.30;2329.60
55365;DHT22;41245;45.384;20.390;2022-10-31T02:10:44;332.90;2329.60
55365;DHT22;41245;45.384;20.390;2022-10-31T02:13:10;332.80;2329.60
55365;DHT22;41245;45.384;20.390;2022-10-31T02:15:39;332.80;2329.60
55365;DHT22;41245;45.384;20.390;2022-10-31T02:18:06;333.00;2329.60
55365;DHT22;41245;45.384;20.390;2022-10-31T02:37:10;333.30;2329.60
55365;DHT22;41245;45.384;20.390;2022-10-31T02:42:25;333.10;2329.60
55365;DHT22;41245;45.384;20.390;2022-10-31T02:45:00;333.10;2329.60
55365;DHT22;41245;45.384;20.390;2022-10-31T02:47:31;333.20;2329.60
55365;DHT22;41245;45.384;20.390;2022-10-31T02:51:01;333.30;2329.60
55365;DHT22;41245;45.384;20.390;2022-10-31T02:52:55;333.50;2329.60
55365;DHT22;41245;45.384;20.390;2022-10-31T02:57:59;333.70;2329.60
55365;DHT22;41245;45.384;20.390;2022-10-31T03:00:27;333.50;2329.60
55365;DHT22;41245;45.384;20.390;2022-10-31T03:08:12;333.10;2329.60
55365;DHT22;41245;45.384;20.390;2022-10-31T03:11:01;333.00;2329.60
55365;DHT22;41245;45.384;20.390;2022-10-31T03:14:16;333.10;2329.60
55365;DHT22;41245;45.384;20.390;2022-10-31T03:16:47;332.80;2329.60
55365;DHT22;41245;45.384;20.390;2022-10-31T03:19:23;332.80;2329.60
55365;DHT22;41245;45.384;20.390;2022-10-31T03:22:00;332.80;2329.60
55365;DHT22;41245;45.384;20.390;2022-10-31T03:24:32;332.80;2329.60
55365;DHT22;41245;45.384;20.390;2022-10-31T03:27:00;332.80;2329.60
55365;DHT22;41245;45.384;20.390;2022-10-31T03:29:29;332.80;2329.60
55365;DHT22;41245;45.384;20.390;2022-10-31T03:32:08;308.10;2304.00
55365;DHT22;41245;45.384;20.390;2022-10-31T03:34:37;332.80;2329.60
55365;DHT22;41245;45.384;20.390;2022-10-31T03:37:06;332.80;2329.60
55365;DHT22;41245;45.384;20.390;2022-10-31T03:39:34;332.90;2329.60
55365;DHT22;41245;45.384;20.390;2022-10-31T03:42:07;333.10;2329.60
55365;DHT22;41245;45.384;20.390;2022-10-31T03:44:35;333.10;2329.60
55365;DHT22;41245;45.384;20.390;2022-10-31T03:47:02;333.30;2329.60
55365;DHT22;41245;45.384;20.390;2022-10-31T03:49:29;333.20;2329.60
55365;DHT22;41245;45.384;20.390;2022-10-31T03:54:53;333.00;2329.60
55365;DHT22;41245;45.384;20.390;2022-10-31T03:57:29;333.20;2329.60
55365;DHT22;41245;45.384;20.390;2022-10-31T04:00:02;333.30;2329.60
55365;DHT22;41245;45.384;20.390;2022-10-31T04:02:31;333.20;2329.60
55365;DHT22;41245;45.384;20.390;2022-10-31T04:04:58;333.40;2329.60
55365;DHT22;41245;45.384;20.390;2022-10-31T04:07:28;333.40;2329.60
55365;DHT22;41245;45.384;20.390;2022-10-31T04:09:56;333.50;2329.60
55365;DHT22;41245;45.384;20.390;2022-10-31T04:12:24;358.50;2329.60
55365;DHT22;41245;45.384;20.390;2022-10-31T04:14:51;333.50;2329.60
55365;DHT22;41245;45.384;20.390;2022-10-31T04:17:20;333.50;2329.60
55365;DHT22;41245;45.384;20.390;2022-10-31T04:19:47;333.50;2329.60
55365;DHT22;41245;45.384;20.390;2022-10-31T04:22:13;333.60;2329.60
55365;DHT22;41245;45.384;20.390;2022-10-31T04:24:40;333.60;2329.60
55365;DHT22;41245;45.384;20.390;2022-10-31T04:27:06;333.70;2329.60
55365;DHT22;41245;45.384;20.390;2022-10-31T04:29:32;358.40;2329.60
55365;DHT22;41245;45.384;20.390;2022-10-31T04:31:57;358.40;2329.60
55365;DHT22;41245;45.384;20.390;2022-10-31T04:34:23;358.40;2329.60
55365;DHT22;41245;45.384;20.390;2022-10-31T04:36:49;358.40;2329.60
55365;DHT22;41245;45.384;20.390;2022-10-31T04:39:15;358.40;2329.60
55365;DHT22;41245;45.384;20.390;2022-10-31T04:41:40;358.40;2329.60
55365;DHT22;41245;45.384;20.390;2022-10-31T04:44:06;333.60;2329.60
55365;DHT22;41245;45.384;20.390;2022-10-31T04:46:32;333.40;2329.60
55365;DHT22;41245;45.384;20.390;2022-10-31T04:48:57;333.40;2329.60
55365;DHT22;41245;45.384;20.390;2022-10-31T04:51:23;333.20;2329.60
55365;DHT22;41245;45.384;20.390;2022-10-31T04:53:49;333.00;2329.60
55365;DHT22;41245;45.384;20.390;2022-10-31T04:56:14;308.00;2304.00
55365;DHT22;41245;45.384;20.390;2022-10-31T04:58:40;307.70;2304.00
55365;DHT22;41245;45.384;20.390;2022-10-31T05:01:06;307.70;2304.00
55365;DHT22;41245;45.384;20.390;2022-10-31T05:03:31;307.50;2304.00
55365;DHT22;41245;45.384;20.390;2022-10-31T05:05:57;307.60;2304.00
55365;DHT22;41245;45.384;20.390;2022-10-31T05:08:22;307.60;2304.00
55365;DHT22;41245;45.384;20.390;2022-10-31T05:10:48;307.60;2304.00
55365;DHT22;41245;45.384;20.390;2022-10-31T05:13:14;308.00;2304.00
55365;DHT22;41245;45.384;20.390;2022-10-31T05:15:40;307.70;2304.00
55365;DHT22;41245;45.384;20.390;2022-10-31T05:18:06;308.00;2304.00
55365;DHT22;41245;45.384;20.390;2022-10-31T05:20:32;308.10;2304.00
55365;DHT22;41245;45.384;20.390;2022-10-31T05:22:59;332.80;2329.60
55365;DHT22;41245;45.384;20.390;2022-10-31T05:25:27;333.00;2329.60
55365;DHT22;41245;45.384;20.390;2022-10-31T05:27:54;333.10;2329.60
55365;DHT22;41245;45.384;20.390;2022-10-31T05:30:26;333.20;2329.60
55365;DHT22;41245;45.384;20.390;2022-10-31T05:32:52;333.30;2329.60
55365;DHT22;41245;45.384;20.390;2022-10-31T05:35:21;333.30;2329.60
55365;DHT22;41245;45.384;20.390;2022-10-31T05:37:47;333.30;2329.60
55365;DHT22;41245;45.384;20.390;2022-10-31T05:40:15;333.30;2329.60
55365;DHT22;41245;45.384;20.390;2022-10-31T05:42:42;333.30;2329.60
55365;DHT22;41245;45.384;20.390;2022-10-31T05:45:09;333.30;2329.60
55365;DHT22;41245;45.384;20.390;2022-10-31T05:47:35;333.30;2329.60
55365;DHT22;41245;45.384;20.390;2022-10-31T05:50:01;333.20;2329.60
55365;DHT22;41245;45.384;20.390;2022-10-31T05:52:26;333.30;2329.60
55365;DHT22;41245;45.384;20.390;2022-10-31T05:54:52;333.30;2329.60
55365;DHT22;41245;45.384;20.390;2022-10-31T05:57:18;333.40;2329.60
55365;DHT22;41245;45.384;20.390;2022-10-31T05:59:43;333.40;2329.60
55365;DHT22;41245;45.384;20.390;2022-10-31T06:02:09;333.50;2329.60
55365;DHT22;41245;45.384;20.390;2022-10-31T06:04:35;333.60;2329.60
55365;DHT22;41245;45.384;20.390;2022-10-31T06:07:00;333.40;2329.60
55365;DHT22;41245;45.384;20.390;2022-10-31T06:09:26;333.40;2329.60
55365;DHT22;41245;45.384;20.390;2022-10-31T06:11:52;333.40;2329.60
55365;DHT22;41245;45.384;20.390;2022-10-31T06:14:17;333.40;2329.60
55365;DHT22;41245;45.384;20.390;2022-10-31T06:16:43;333.50;2329.60
55365;DHT22;41245;45.384;20.390;2022-10-31T06:19:09;333.50;2329.60
55365;DHT22;41245;45.384;20.390;2022-10-31T06:21:35;333.20;2329.60
55365;DHT22;41245;45.384;20.390;2022-10-31T06:24:00;333.30;2329.60
55365;DHT22;41245;45.384;20.390;2022-10-31T06:26:26;333.30;2329.60
55365;DHT22;41245;45.384;20.390;2022-10-31T06:28:52;333.50;2329.60
55365;DHT22;41245;45.384;20.390;2022-10-31T06:31:17;333.60;2329.60
55365;DHT22;41245;45.384;20.390;2022-10-31T06:33:43;333.60;2329.60
55365;DHT22;41245;45.384;20.390;2022-10-31T06:36:10;358.40;2329.60
55365;DHT22;41245;45.384;20.390;2022-10-31T06:38:35;358.50;2329.60
55365;DHT22;41245;45.384;20.390;2022-10-31T06:41:05;358.50;2329.60
55365;DHT22;41245;45.384;20.390;2022-10-31T06:43:31;358.50;2329.60
55365;DHT22;41245;45.384;20.390;2022-10-31T06:45:57;358.50;2329.60
55365;DHT22;41245;45.384;20.390;2022-10-31T06:48:23;358.40;2329.60
55365;DHT22;41245;45.384;20.390;2022-10-31T06:50:49;358.40;2329.60
55365;DHT22;41245;45.384;20.390;2022-10-31T06:53:14;333.70;2329.60
55365;DHT22;41245;45.384;20.390;2022-10-31T06:55:41;358.40;2329.60
55365;DHT22;41245;45.384;20.390;2022-10-31T06:58:09;333.40;2329.60
55365;DHT22;41245;45.384;20.390;2022-10-31T07:00:35;333.70;2329.60
55365;DHT22;41245;45.384;20.390;2022-10-31T07:03:03;358.50;2329.60
55365;DHT22;41245;45.384;20.390;2022-10-31T07:05:29;358.70;2329.60
55365;DHT22;41245;45.384;20.390;2022-10-31T07:08:00;358.70;2329.60
55365;DHT22;41245;45.384;20.390;2022-10-31T07:10:28;358.80;2329.60
55365;DHT22;41245;45.384;20.390;2022-10-31T07:12:58;358.80;2329.60
55365;DHT22;41245;45.384;20.390;2022-10-31T07:15:25;358.90;2329.60
55365;DHT22;41245;45.384;20.390;2022-10-31T07:17:51;358.90;2329.60
55365;DHT22;41245;45.384;20.390;2022-10-31T07:20:17;358.90;2329.60
55365;DHT22;41245;45.384;20.390;2022-10-31T07:22:43;358.90;2329.60
55365;DHT22;41245;45.384;20.390;2022-10-31T07:25:09;359.10;2329.60
55365;DHT22;41245;45.384;20.390;2022-10-31T07:27:39;359.00;2329.60
55365;DHT22;41245;45.384;20.390;2022-10-31T07:30:06;358.90;2329.60
55365;DHT22;41245;45.384;20.390;2022-10-31T07:32:43;358.70;2329.60
55365;DHT22;41245;45.384;20.390;2022-10-31T07:35:14;358.60;2329.60
55365;DHT22;41245;45.384;20.390;2022-10-31T07:37:40;358.70;2329.60
55365;DHT22;41245;45.384;20.390;2022-10-31T07:40:07;358.80;2329.60
55365;DHT22;41245;45.384;20.390;2022-10-31T07:42:37;358.80;2329.60
55365;DHT22;41245;45.384;20.390;2022-10-31T07:45:08;358.90;2329.60
55365;DHT22;41245;45.384;20.390;2022-10-31T07:47:53;358.80;2329.60
55365;DHT22;41245;45.384;20.390;2022-10-31T07:50:24;358.80;2329.60
55365;DHT22;41245;45.384;20.390;2022-10-31T07:53:00;358.80;2329.60
55365;DHT22;41245;45.384;20.390;2022-10-31T07:55:27;358.90;2329.60
55365;DHT22;41245;45.384;20.390;2022-10-31T07:58:21;359.00;2329.60
55365;DHT22;41245;45.384;20.390;2022-10-31T08:00:46;359.20;2329.60
55365;DHT22;41245;45.384;20.390;2022-10-31T08:03:14;359.20;2329.60
55365;DHT22;41245;45.384;20.390;2022-10-31T08:05:40;359.30;2329.60
55365;DHT22;41245;45.384;20.390;2022-10-31T08:08:07;384.00;2329.60
55365;DHT22;41245;45.384;20.390;2022-10-31T08:10:33;384.10;2329.60
55365;DHT22;41245;45.384;20.390;2022-10-31T08:13:02;384.20;2329.60
55365;DHT22;41245;45.384;20.390;2022-10-31T08:15:28;384.10;2329.60
55365;DHT22;41245;45.384;20.390;2022-10-31T08:17:55;384.20;2329.60
55365;DHT22;41245;45.384;20.390;2022-10-31T08:20:21;384.20;2329.60
55365;DHT22;41245;45.384;20.390;2022-10-31T08:25:20;384.20;2329.60
55365;DHT22;41245;45.384;20.390;2022-10-31T08:27:53;384.30;2329.60
55365;DHT22;41245;45.384;20.390;2022-10-31T08:30:20;384.50;2329.60
55365;DHT22;41245;45.384;20.390;2022-10-31T08:32:47;384.60;2329.60
55365;DHT22;41245;45.384;20.390;2022-10-31T08:35:12;384.70;2329.60
55365;DHT22;41245;45.384;20.390;2022-10-31T08:37:38;409.60;2355.20
55365;DHT22;41245;45.384;20.390;2022-10-31T08:40:05;409.60;1996.80
55365;DHT22;41245;45.384;20.390;2022-10-31T08:42:32;409.60;2355.20
55365;DHT22;41245;45.384;20.390;2022-10-31T08:44:57;409.90;1971.20
55365;DHT22;41245;45.384;20.390;2022-10-31T08:47:23;409.70;2355.20
55365;DHT22;41245;45.384;20.390;2022-10-31T08:49:49;409.70;2355.20
55365;DHT22;41245;45.384;20.390;2022-10-31T08:52:14;409.90;2073.60
55365;DHT22;41245;45.384;20.390;2022-10-31T08:54:41;410.20;2124.80
55365;DHT22;41245;45.384;20.390;2022-10-31T08:57:07;410.40;2176.00
55365;DHT22;41245;45.384;20.390;2022-10-31T08:59:32;410.40;2252.80
55365;DHT22;41245;45.384;20.390;2022-10-31T09:01:58;410.40;2355.20
55365;DHT22;41245;45.384;20.390;2022-10-31T09:04:23;410.30;2329.60
55365;DHT22;41245;45.384;20.390;2022-10-31T09:06:49;410.40;2278.40
55365;DHT22;41245;45.384;20.390;2022-10-31T09:09:15;410.50;2329.60
55365;DHT22;41245;45.384;20.390;2022-10-31T09:11:40;435.20;2355.20
55365;DHT22;41245;45.384;20.390;2022-10-31T09:14:06;435.30;2355.20
55365;DHT22;41245;45.384;20.390;2022-10-31T09:16:32;435.20;2355.20
55365;DHT22;41245;45.384;20.390;2022-10-31T09:18:58;435.40;2355.20
55365;DHT22;41245;45.384;20.390;2022-10-31T09:21:23;435.30;2355.20
55365;DHT22;41245;45.384;20.390;2022-10-31T09:23:49;435.60;2355.20
55365;DHT22;41245;45.384;20.390;2022-10-31T09:26:15;435.60;2355.20
55365;DHT22;41245;45.384;20.390;2022-10-31T09:28:40;435.40;2355.20
55365;DHT22;41245;45.384;20.390;2022-10-31T09:31:06;435.50;2355.20
55365;DHT22;41245;45.384;20.390;2022-10-31T09:33:32;435.60;2355.20
55365;DHT22;41245;45.384;20.390;2022-10-31T09:35:58;435.60;2355.20
55365;DHT22;41245;45.384;20.390;2022-10-31T09:38:24;435.60;2355.20
55365;DHT22;41245;45.384;20.390;2022-10-31T09:41:16;435.60;2355.20
55365;DHT22;41245;45.384;20.390;2022-10-31T09:52:26;460.90;2380.80
55365;DHT22;41245;45.384;20.390;2022-10-31T09:55:16;436.00;2355.20
55365;DHT22;41245;45.384;20.390;2022-10-31T09:57:44;436.00;2355.20
55365;DHT22;41245;45.384;20.390;2022-10-31T10:00:19;460.90;2380.80
55365;DHT22;41245;45.384;20.390;2022-10-31T10:02:56;436.10;2355.20
55365;DHT22;41245;45.384;20.390;2022-10-31T10:05:54;460.80;2380.80
55365;DHT22;41245;45.384;20.390;2022-10-31T10:08:26;461.10;2380.80
55365;DHT22;41245;45.384;20.390;2022-10-31T10:30:22;435.80;2355.20
55365;DHT22;41245;45.384;20.390;2022-10-31T10:32:59;436.00;2355.20
55365;DHT22;41245;45.384;20.390;2022-10-31T10:35:41;436.00;2355.20
55365;DHT22;41245;45.384;20.390;2022-10-31T10:40:34;435.90;2355.20
55365;DHT22;41245;45.384;20.390;2022-10-31T10:52:33;435.80;2355.20
55365;DHT22;41245;45.384;20.390;2022-10-31T10:54:59;435.90;2355.20
55365;DHT22;41245;45.384;20.390;2022-10-31T10:57:53;435.70;2355.20
55365;DHT22;41245;45.384;20.390;2022-10-31T11:00:35;435.70;2355.20
55365;DHT22;41245;45.384;20.390;2022-10-31T11:03:01;435.60;2355.20
55365;DHT22;41245;45.384;20.390;2022-10-31T11:08:02;435.70;2355.20
55365;DHT22;41245;45.384;20.390;2022-10-31T11:10:28;435.70;2355.20
55365;DHT22;41245;45.384;20.390;2022-10-31T11:15:50;435.70;2355.20
55365;DHT22;41245;45.384;20.390;2022-10-31T11:18:21;435.80;2355.20
55365;DHT22;41245;45.384;20.390;2022-10-31T11:20:56;435.80;2355.20
55365;DHT22;41245;45.384;20.390;2022-10-31T11:23:24;435.70;2355.20
55365;DHT22;41245;45.384;20.390;2022-10-31T11:25:58;435.80;2355.20
55365;DHT22;41245;45.384;20.390;2022-10-31T11:28:24;435.70;2355.20
55365;DHT22;41245;45.384;20.390;2022-10-31T11:33:49;435.90;2355.20
55365;DHT22;41245;45.384;20.390;2022-10-31T11:36:50;435.90;2355.20
55365;DHT22;41245;45.384;20.390;2022-10-31T11:39:20;435.80;2355.20
55365;DHT22;41245;45.384;20.390;2022-10-31T11:41:47;435.80;2355.20
55365;DHT22;41245;45.384;20.390;2022-10-31T11:47:00;435.90;2355.20
55365;DHT22;41245;45.384;20.390;2022-10-31T11:49:47;435.90;2355.20
55365;DHT22;41245;45.384;20.390;2022-10-31T11:57:24;436.00;2355.20
55365;DHT22;41245;45.384;20.390;2022-10-31T11:59:59;436.00;2355.20
55365;DHT22;41245;45.384;20.390;2022-10-31T12:02:25;436.10;2355.20
55365;DHT22;41245;45.384;20.390;2022-10-31T12:05:25;460.80;2380.80
55365;DHT22;41245;45.384;20.390;2022-10-31T12:07:54;461.00;2380.80
55365;DHT22;41245;45.384;20.390;2022-10-31T12:10:23;461.20;2380.80
55365;DHT22;41245;45.384;20.390;2022-10-31T12:13:13;461.10;2380.80
55365;DHT22;41245;45.384;20.390;2022-10-31T12:15:51;436.00;2355.20
55365;DHT22;41245;45.384;20.390;2022-10-31T12:18:47;435.90;2355.20
55365;DHT22;41245;45.384;20.390;2022-10-31T12:24:03;435.50;2355.20
55365;DHT22;41245;45.384;20.390;2022-10-31T12:26:46;435.70;2355.20
55365;DHT22;41245;45.384;20.390;2022-10-31T12:29:43;435.50;2355.20
55365;DHT22;41245;45.384;20.390;2022-10-31T12:34:50;435.60;2355.20
55365;DHT22;41245;45.384;20.390;2022-10-31T12:40:43;435.90;2355.20
55365;DHT22;41245;45.384;20.390;2022-10-31T12:46:00;460.80;2380.80
55365;DHT22;41245;45.384;20.390;2022-10-31T12:51:02;435.70;2355.20
55365;DHT22;41245;45.384;20.390;2022-10-31T13:01:53;435.60;2355.20
55365;DHT22;41245;45.384;20.390;2022-10-31T13:04:56;435.50;2355.20
55365;DHT22;41245;45.384;20.390;2022-10-31T13:07:43;435.20;2355.20
55365;DHT22;41245;45.384;20.390;2022-10-31T13:10:47;410.50;2355.20
55365;DHT22;41245;45.384;20.390;2022-10-31T13:13:31;410.40;2355.20
55365;DHT22;41245;45.384;20.390;2022-10-31T13:15:57;410.40;2355.20
55365;DHT22;41245;45.384;20.390;2022-10-31T13:18:35;410.20;2355.20
55365;DHT22;41245;45.384;20.390;2022-10-31T13:21:08;410.30;2201.60
55365;DHT22;41245;45.384;20.390;2022-10-31T13:23:36;410.40;2355.20
55365;DHT22;41245;45.384;20.390;2022-10-31T13:26:22;410.30;2355.20
55365;DHT22;41245;45.384;20.390;2022-10-31T13:31:51;410.00;2201.60
55365;DHT22;41245;45.384;20.390;2022-10-31T13:34:47;410.10;2355.20
55365;DHT22;41245;45.384;20.390;2022-10-31T13:37:40;410.40;2176.00
55365;DHT22;41245;45.384;20.390;2022-10-31T13:40:39;410.20;2355.20
55365;DHT22;41245;45.384;20.390;2022-10-31T13:45:53;410.00;2355.20
55365;DHT22;41245;45.384;20.390;2022-10-31T13:51:03;410.00;2355.20
55365;DHT22;41245;45.384;20.390;2022-10-31T13:56:33;410.10;2329.60
55365;DHT22;41245;45.384;20.390;2022-10-31T13:59:14;410.00;2355.20
55365;DHT22;41245;45.384;20.390;2022-10-31T14:01:56;410.00;2355.20
55365;DHT22;41245;45.384;20.390;2022-10-31T14:04:24;409.90;2304.00
55365;DHT22;41245;45.384;20.390;2022-10-31T14:09:23;409.70;2150.40
55365;DHT22;41245;45.384;20.390;2022-10-31T14:11:50;384.90;2048.00
55365;DHT22;41245;45.384;20.390;2022-10-31T14:14:17;409.60;2227.20
55365;DHT22;41245;45.384;20.390;2022-10-31T14:16:44;384.80;2201.60
55365;DHT22;41245;45.384;20.390;2022-10-31T14:19:18;384.80;2150.40
55365;DHT22;41245;45.384;20.390;2022-10-31T14:21:49;384.70;2073.60
55365;DHT22;41245;45.384;20.390;2022-10-31T14:29:29;384.70;2073.60
55365;DHT22;41245;45.384;20.390;2022-10-31T14:34:41;384.60;2329.60
55365;DHT22;41245;45.384;20.390;2022-10-31T14:51:21;384.50;2022.40
55365;DHT22;41245;45.384;20.390;2022-10-31T14:53:51;384.30;2329.60
55365;DHT22;41245;45.384;20.390;2022-10-31T14:56:27;384.10;2329.60
55365;DHT22;41245;45.384;20.390;2022-10-31T14:58:57;384.20;1945.60
55365;DHT22;41245;45.384;20.390;2022-10-31T15:01:27;384.10;2329.60
55365;DHT22;41245;45.384;20.390;2022-10-31T15:04:20;384.00;2329.60
55365;DHT22;41245;45.384;20.390;2022-10-31T15:07:33;384.10;2329.60
55365;DHT22;41245;45.384;20.390;2022-10-31T15:09:35;384.10;2329.60
55365;DHT22;41245;45.384;20.390;2022-10-31T15:12:22;384.10;2329.60
55365;DHT22;41245;45.384;20.390;2022-10-31T15:14:50;384.00;2329.60
55365;DHT22;41245;45.384;20.390;2022-10-31T15:17:16;359.30;2329.60
55365;DHT22;41245;45.384;20.390;2022-10-31T15:19:42;359.30;2329.60
55365;DHT22;41245;45.384;20.390;2022-10-31T15:22:15;359.20;2329.60
55365;DHT22;41245;45.384;20.390;2022-10-31T15:24:42;359.10;2329.60
55365;DHT22;41245;45.384;20.390;2022-10-31T15:27:15;359.00;2329.60
55365;DHT22;41245;45.384;20.390;2022-10-31T15:29:50;359.00;2329.60
55365;DHT22;41245;45.384;20.390;2022-10-31T15:32:20;358.90;2329.60
55365;DHT22;41245;45.384;20.390;2022-10-31T15:34:46;358.90;2329.60
55365;DHT22;41245;45.384;20.390;2022-10-31T15:37:14;358.80;2329.60
55365;DHT22;41245;45.384;20.390;2022-10-31T15:39:40;358.70;2329.60
55365;DHT22;41245;45.384;20.390;2022-10-31T15:47:36;358.70;2329.60
55365;DHT22;41245;45.384;20.390;2022-10-31T15:50:05;358.60;2329.60
55365;DHT22;41245;45.384;20.390;2022-10-31T15:52:42;358.60;2329.60
55365;DHT22;41245;45.384;20.390;2022-10-31T15:57:43;358.50;2329.60
55365;DHT22;41245;45.384;20.390;2022-10-31T16:00:33;358.40;2329.60
55365;DHT22;41245;45.384;20.390;2022-10-31T16:05:46;358.40;2329.60
55365;DHT22;41245;45.384;20.390;2022-10-31T16:13:28;333.50;2329.60
55365;DHT22;41245;45.384;20.390;2022-10-31T16:16:03;333.30;2329.60
55365;DHT22;41245;45.384;20.390;2022-10-31T16:18:35;333.30;2329.60
55365;DHT22;41245;45.384;20.390;2022-10-31T16:21:02;333.20;2329.60
55365;DHT22;41245;45.384;20.390;2022-10-31T16:23:28;333.10;2329.60
55365;DHT22;41245;45.384;20.390;2022-10-31T16:25:54;333.20;2329.60
55365;DHT22;41245;45.384;20.390;2022-10-31T16:28:22;332.90;2329.60
55365;DHT22;41245;45.384;20.390;2022-10-31T16:30:51;332.90;2329.60
55365;DHT22;41245;45.384;20.390;2022-10-31T16:35:55;332.90;2329.60
55365;DHT22;41245;45.384;20.390;2022-10-31T16:38:21;332.80;2329.60
55365;DHT22;41245;45.384;20.390;2022-10-31T16:40:48;308.10;2304.00
55365;DHT22;41245;45.384;20.390;2022-10-31T16:43:16;308.10;2304.00
55365;DHT22;41245;45.384;20.390;2022-10-31T16:45:48;332.80;2329.60
55365;DHT22;41245;45.384;20.390;2022-10-31T16:48:16;308.00;2304.00
55365;DHT22;41245;45.384;20.390;2022-10-31T16:50:43;308.10;2304.00
55365;DHT22;41245;45.384;20.390;2022-10-31T16:53:10;308.00;2304.00
55365;DHT22;41245;45.384;20.390;2022-10-31T16:55:53;308.00;2304.00
55365;DHT22;41245;45.384;20.390;2022-10-31T16:58:25;308.10;2304.00
55365;DHT22;41245;45.384;20.390;2022-10-31T17:00:52;308.00;2304.00
55365;DHT22;41245;45.384;20.390;2022-10-31T17:03:18;308.00;2304.00
55365;DHT22;41245;45.384;20.390;2022-10-31T17:05:44;308.10;2304.00
55365;DHT22;41245;45.384;20.390;2022-10-31T17:08:10;308.00;2304.00
55365;DHT22;41245;45.384;20.390;2022-10-31T17:10:36;308.00;2304.00
55365;DHT22;41245;45.384;20.390;2022-10-31T17:13:03;307.90;2304.00
55365;DHT22;41245;45.384;20.390;2022-10-31T17:15:45;307.80;2304.00
55365;DHT22;41245;45.384;20.390;2022-10-31T17:18:15;307.70;2304.00
55365;DHT22;41245;45.384;20.390;2022-10-31T17:20:42;307.70;2304.00
55365;DHT22;41245;45.384;20.390;2022-10-31T17:23:10;307.60;2304.00
55365;DHT22;41245;45.384;20.390;2022-10-31T17:25:36;307.60;2304.00
55365;DHT22;41245;45.384;20.390;2022-10-31T17:28:02;307.50;2304.00
55365;DHT22;41245;45.384;20.390;2022-10-31T17:30:30;307.50;2304.00
55365;DHT22;41245;45.384;20.390;2022-10-31T17:32:56;307.50;2304.00
55365;DHT22;41245;45.384;20.390;2022-10-31T17:35:22;307.50;2304.00
55365;DHT22;41245;45.384;20.390;2022-10-31T17:37:48;307.50;2304.00
55365;DHT22;41245;45.384;20.390;2022-10-31T17:40:17;307.50;2304.00